WFO Denver/Boulder


Hot-Air Balloon Forecast for Colorado
National Weather Service Denver/Boulder, Colorado
1805 MST Friday, December 26, 2014

COLORADO SYNOPSIS VALID 27/0000Z-27/1200Z AN UPPER TROUGH WILL 
REMAIN OVER COLORADO THROUGH THE PERIOD WITH PRETTY WEAK FLOW ALOFT. 
AT THE SURFACE...HIGH PRESSURE WILL COVER COLORADO WITH DECREASING 
MOISTURE.

* * * * * Northeast Colorado * * * * *

METAR KFNL 270055Z AUTO 00000KT 2 1/2SM BKN015 M09/M11 A3003 RMK AO1
METAR KFNL 270035Z AUTO 00000KT 3SM OVC017 M09/M11 A3002 RMK AO1
METAR KFNL 270015Z AUTO 00000KT 2 1/2SM BKN017 BKN022 M09/M11 A3001 RMK
       AO1

METAR KGXY 270055Z AUTO 00000KT 5SM CLR M12/M15 A3003 RMK AO1
METAR KGXY 270035Z AUTO 00000KT 10SM CLR M11/M14 A3002 RMK AO1
METAR KGXY 270015Z AUTO 00000KT 6SM CLR M10/M13 A3001 RMK AO1

METAR KLMO 270055Z AUTO 00000KT 2 1/2SM -SN SCT021 BKN038 OVC060 M07/M09
       A3004 RMK AO2 T10731089
METAR KLMO 270035Z AUTO 00000KT 5SM -SN SCT008 BKN049 OVC065 M07/M09
       A3003 RMK AO2 T10751091
METAR KLMO 270015Z AUTO 00000KT 2SM -SN SCT005 BKN010 OVC013 M07/M09
       A3002 RMK AO2 T10711090

METAR KBDU 270056Z AUTO 00000KT 5SM -SN SCT021 BKN026 OVC032 M08/M09
       A3000 RMK AO2
METAR KBDU 270036Z AUTO 00000KT 5SM -SN SCT017 BKN029 OVC049 M08/M09
       A2999 RMK AO2
METAR KBDU 270016Z AUTO 00000KT 4SM -SN SCT012 BKN017 OVC028 M08/M09
       A2999 RMK AO2

METAR KEIK 270055Z AUTO 00000KT 5SM -SN M09/M10 A3002 RMK AO2
       T10871097
METAR KEIK 270035Z AUTO 00000KT 3SM -SN M09/M09 A3001 RMK AO2
       T10861095
METAR KEIK 270015Z AUTO 00000KT 3SM -SN M08/M09 A2999 RMK AO2
       T10841095

KBJC 262340Z 2700/2724 02006KT 4SM -SN BR SCT008 BKN015 OVC030
      TEMPO 2700/2703 1SM -SN BR OVC006
     FM270400 30006KT P6SM VCSH SCT015 BKN030 OVC060
     FM270600 25004KT P6SM SCT025 BKN040 BKN080
METAR KBJC 270046Z 02003KT 2SM -SN OVC009 M09/M10 A2998
METAR KBJC 262345Z 03005KT 1SM -SN OVC010 M08/M10 A2995
SPECI KBJC 262315Z 03005KT 1SM -SN SCT008 BKN012 OVC020 M08/M10
       A2994

KDEN 262340Z 2700/2806 01007KT 5SM -SN FEW010 OVC035
      TEMPO 2700/2703 2SM -SN BR OVC015
     FM270300 33005KT P6SM VCSH SCT015 BKN030 OVC060
     FM270700 24006KT P6SM SCT025 BKN040 BKN080
     FM271000 21007KT P6SM FEW040 SCT080
     FM271400 VRB04KT P6SM FEW200
     FM271900 16007KT P6SM FEW200
     FM280200 22007KT P6SM SKC
METAR KDEN 270053Z 01006KT 2SM -SN BR OVC028 M09/M11 A2999 RMK AO2
       SLP211 P0001 T10941111 $
SPECI KDEN 270051Z 36006KT 1 1/2SM -SN BR OVC030 M09/M11 A2999 RMK AO2
       TWR VIS 2 P0001 $
SPECI KDEN 270038Z 36005KT 2SM -SN BR OVC042 M09/M11 A2998 RMK AO2 SFC
       VIS 3 P0000 T10941106 $

METAR KFTG 270100Z AUTO 31004KT 2SM -SN OVC013 M08/M10 A2999 RMK AO2
METAR KFTG 270035Z AUTO 31004KT 3SM -SN BKN015 OVC023 M09/M10 A2998 RMK
       AO2
METAR KFTG 270014Z AUTO 31004KT 10SM -SN BKN012 BKN037 OVC085 M10/M10
       A2997 RMK AO2

KBKF 2621/2723 04009KT 4800 -SN SCT002 SCT015 BKN030 OVC050
     620307 QNH2989INS
     BECMG 2702/2703 VRB06KT 8000 -SN SCT020 OVC025 620254
     QNH2990INS
     BECMG 2708/2709 VRB06KT 9999 NSW FEW020 SCT025 BKN030
     620305 QNH2997INS
     BECMG 2716/2717 17009KT 9999 FEW010 SCT020 SCT030
     QNH3005INS TXM04/2722Z TNM14/2714Z AMD 262128
METAR KBKF 270058Z 02002KT 2SM -SN BR SCT010 BKN030 BKN200 M11/M11 A2999
       RMK AO2A SLP221 P0000 T11071113
METAR KBKF 262358Z 02003KT 7SM -SN SCT010 BKN200 M11/M12 A2996 RMK AO2A
       SLP205 P0000 60000 T11061117 11074 21107 52016
METAR KBKF 262258Z 02005KT 10SM -SN SCT010 BKN200 M09/M11 A2993 RMK AO2A
       SLP190 P0000 T10931115

KAPA 262340Z 2700/2724 02007KT 5SM -SN BR FEW010 SCT030 OVC060
      TEMPO 2700/2703 2SM -SN BR OVC015
     FM270400 28005KT P6SM VCSH SCT015 BKN030 OVC060
     FM270700 24005KT P6SM SCT025 BKN040 BKN080
     FM271000 21005KT P6SM FEW040 SCT080
     FM271400 21004KT P6SM FEW180
METAR KAPA 270053Z 05004KT 3SM -SN BR FEW015 BKN026 OVC044 M10/M12 A2996
       RMK AO2 SNB04 SLP224 P0000 T11001117
SPECI KAPA 270010Z 04004KT 2 1/2SM -SN BR SCT021 BKN029 OVC042 M10/M12
       A2994 RMK AO2 SNB04 P0000 T11001117
METAR KAPA 262353Z 03005KT 6SM BR FEW030 SCT045 OVC070 M09/M12 A2993 RMK
       AO2 SLP209 60000 T10941122 11078 21094 53016

METAR KMNH 270054Z AUTO 00000KT 4SM -SN SCT020 BKN036 OVC044 M13/M15
       A2989 RMK AO2
METAR KMNH 270033Z AUTO 36004KT 10SM OVC018 M13/M13 A2988 RMK AO2
METAR KMNH 270013Z AUTO 36005KT 10SM OVC018 M12/M13 A2987 RMK AO2

METAR KFMM 270055Z AUTO 35003KT 7SM -SN SCT009 SCT020 OVC032 M09/M10
       A3004 RMK AO2 T10911105
METAR KFMM 270035Z AUTO 36004KT 5SM -SN BKN009 BKN017 OVC024 M09/M10
       A3003 RMK AO2 T10901105
METAR KFMM 270015Z AUTO 01006KT 2 1/2SM -SN OVC009 M09/M10 A3003 RMK AO2
       T10881103

METAR KSTK 270050Z AUTO 00000KT 2 1/2SM -SN BKN014 OVC026 M06/M07 A3005
       RMK AO2
METAR KSTK 270030Z AUTO 02004KT 4SM -SN OVC017 M06/M07 A3004 RMK AO2
METAR KSTK 270010Z AUTO 03004KT 4SM -SN SCT010 SCT014 OVC019 M06/M07
       A3003 RMK AO2

METAR KAKO 270053Z AUTO 35009KT 4SM -SN BR OVC029 M11/M12 A3001 RMK AO2
       SLP225 P0000 T11061117
SPECI KAKO 270045Z AUTO 35011KT 3SM -SN BR OVC029 M11/M11 A3001 RMK AO2
       P0000 T11061111
SPECI KAKO 270011Z AUTO 34011KT 2SM -SN BR OVC030 M10/M11 A2999 RMK AO2
       P0000 T11001106

METAR KLIC 270055Z AUTO 36010KT 8SM OVC040 M10/M12 A2997 RMK AO2 SLP203
       T11001122
METAR KLIC 262355Z AUTO 35008KT 10SM BKN060 BKN080 OVC110 M11/M12 A2994
       RMK AO2 SLP195 60000 T11061122 11083 21122 53014
METAR KLIC 262255Z AUTO 34008KT 10SM SCT055 OVC080 M11/M13 A2992 RMK AO2
       SNE06 SLP187 P0000 T11061128

METAR KHEQ 270055Z AUTO 35011KT 7SM -SN OVC006 M06/M07 A3005 RMK AO2
METAR KHEQ 270035Z AUTO 34008KT 5SM -SN OVC006 M06/M07 A3005 RMK AO2
METAR KHEQ 270015Z AUTO 35009KT 4SM -SN OVC006 M06/M07 A3003 RMK AO2

METAR K2V5 270055Z AUTO 33006KT 3SM -SN OVC034 M07/M08 A3005 RMK AO2
       T10681081
METAR K2V5 270035Z AUTO 34007KT 4SM -SN SCT020 BKN027 OVC036 M07/M08
       A3004 RMK AO2 T10671080
METAR K2V5 270015Z AUTO 33006KT 2SM -SN OVC021 M06/M08 A3004 RMK AO2
       T10651077

METAR KITR 270053Z AUTO 36008KT 10SM SCT070 M09/M11 A3002 RMK AO2 SNE14
       SLP205 P0000 T10891111
SPECI KITR 270026Z AUTO 35008KT 10SM SCT021 SCT120 M09/M11 A3000 RMK AO2
       SNE14 P0000 T10891106
METAR KITR 262353Z AUTO 35010KT 3SM -SN OVC023 M07/M10 A2998 RMK AO2
       SNB2259 SLP192 P0000 60000 T10721100 11056 21072 51014

Sunrise/Sunset for 12/26/2014
Fort Collins - 07:22:20 MST / 16:39:40 MST
Denver       - 07:19:22 MST / 16:41:47 MST
Sterling     - 07:15:13 MST / 16:31:58 MST

Denver/Boulder (KFTG) 12/27/14 00:47 UTC
Radar VAD winds      Height      Dir/Spd(kt)
                  17000 FT MSL...292/023
                  16000 FT MSL...283/019
                  15000 FT MSL...294/020
                  14000 FT MSL...302/021
                  13500 FT MSL...298/020
                  13000 FT MSL...286/017
                  12000 FT MSL...267/012
                  11800 FT MSL...264/012
                  11000 FT MSL...278/008
                  10100 FT MSL...324/008
                  10000 FT MSL...329/008
                   9000 FT MSL...343/008
                   8400 FT MSL...351/006
                   8000 FT MSL...360/007
                   7000 FT MSL...004/009
                   6600 FT MSL...002/010
                   6500 FT MSL...013/008
                   6000 FT MSL...360/008
                   5900 FT MSL...035/009

Denver/Boulder Aviation Discussion
Issued at 2200 UTC Friday, December 26, 2014

.AVIATION...(FOR THE TAFS THROUGH 18Z SATURDAY MORNING)
ISSUED AT 300 PM MST FRI DEC 26 2014
SCATTERED LIGHT SNOW SHOWERS WILL CONTINUE INTO EARLY EVENING BEFORE
BETTER CLEARING TAKES PLACE. ADDITIONAL ACCUMULATIONS SHOULD BE A
HALF INCH OR LESS. CEILINGS AND VIS WILL STAY MAINLY MVFR WITH
TEMPO IFR THROUGH 03-06Z. LIGHT NNE WINDS WILL TRANSITION TO
DRAINAGE OVERNIGHT.


* * * * * Southeast Colorado * * * * *

METAR K4BM 270055Z AUTO 22003KT 10SM OVC001 M17/M20 A2972 RMK AO2
METAR K4BM 270035Z AUTO 22003KT 5SM BR BKN001 BKN017 BKN070 M17/M20
       A2971 RMK AO2
METAR K4BM 270015Z AUTO 22003KT 3SM BR BKN017 BKN026 OVC039 M17/M19
       A2971 RMK AO2

METAR KAFF 270058Z AUTO 36006KT 10SM -SN OVC029 M10/M14 A2991 RMK AO2
       SNE07SNB30E40SNB53 SLP205 P0000 T11001136
SPECI KAFF 270053Z AUTO 36007KT 10SM -SN OVC029 M10/M14 A2991 RMK AO2
       SNE07SNB30E40SNB53
METAR KAFF 270058Z AUTO 36006KT 10SM -SN OVC029 M10/M14 A2991 RMK AO2
        SNE07SNB30E40SNB53 SLP205 P0000 T11001136

KCOS 270008Z 2700/2724 01008KT P6SM VCSH BKN035 OVC050
      TEMPO 2700/2702 2SM -SN BR OVC025
     FM270300 VRB03KT P6SM VCSH BKN030
     FM270600 VRB03KT P6SM SCT030 SCT100
METAR KCOS 270054Z 36005KT 3SM -SN OVC025 M08/M12 A2993 RMK AO2 SLP205
       P0001 T10831122
SPECI KCOS 270047Z 36007KT 5SM -SN OVC025 M08/M12 A2993 RMK AO2 P0001
       T10781122
SPECI KCOS 262359Z 34007KT 2SM -SN OVC027 M07/M12 A2991 RMK AO2 P0000
       T10721122


METAR KFLY 270054Z AUTO 36008KT 10SM OVC025 M11/M14 A2990 RMK AO2
       T11061137
METAR KFLY 270034Z AUTO 36008KT 10SM OVC025 M11/M14 A2989 RMK AO2
       T11071139
METAR KFLY 270014Z AUTO 36008KT 10SM SCT022 OVC027 M11/M14 A2988 RMK AO2
       T11081140

METAR KFCS 270058Z AUTO 11005KT 10SM -SN SCT018 OVC027 M07/M11 A2994 RMK
       AO2 SNB02 SLP221 P0000 T10751114
SPECI KFCS 270022Z AUTO 12007KT 7SM -SN FEW011 OVC021 M07/M11 A2992 RMK
       AO2 SNB02
SPECI KFCS 270017Z AUTO 11007KT 7SM -SN FEW006 OVC019 M07/M11 A2992 RMK
       AO2 SNB02 CIG 015V020

KPUB 270026Z 2700/2724 15004KT P6SM -SN FEW030 OVC040
      TEMPO 2700/2702 2SM -SN BR OVC030
     FM270200 VRB03KT 6SM BR VCSH BKN030
     FM270700 VRB03KT P6SM SCT030 SCT100
SPECI KPUB 270100Z AUTO 15006KT 2SM -SN BR SCT021 OVC027 M06/M07 A3001
       RMK AO2 P0000 T10561072
METAR KPUB 270053Z AUTO 14007KT 3SM -SN BR FEW018 OVC027 M06/M07 A3000
       RMK AO2 SLP201 P0000 T10561072
SPECI KPUB 270026Z AUTO 15006KT 4SM -SN BR FEW018 OVC028 M06/M07 A2999
       RMK AO2 P0000 T10561072


METAR KTAD 270054Z AUTO 32006KT 4SM BR BKN001 M13/M14 A2996 RMK AO2
       SLP201 I1001 T11331144
SPECI KTAD 270049Z AUTO 32006KT 1SM BR VV001 M13/M14 A2995 RMK AO2
       I1001
SPECI KTAD 270036Z AUTO 32005KT 1/4SM FZFG VV001 M12/M13 A2994 RMK AO2
       I1000 T11221128

METAR KLHX 270053Z AUTO 34005KT 10SM CLR M10/M12 A3004 RMK AO2 SLP209
       T11001122
METAR KLHX 262353Z AUTO 03007KT 10SM FEW110 M08/M11 A3000 RMK AO2 SLP191
       60000 T10781111 11028 21083 53016
METAR KLHX 262253Z AUTO 36010KT 10SM FEW027 FEW070 SCT085 M04/M10 A2998
       RMK AO2 SLP179 T10441100

METAR KLAA 270053Z AUTO 34004KT 5SM BR FEW015 OVC027 M06/M08 A3004 RMK
       AO2 SNB27E50 SLP200 P0000 T10611078
SPECI KLAA 270049Z AUTO 36004KT 4SM -SN BR FEW015 BKN025 OVC034 M06/M07
       A3004 RMK AO2 SNB27 P0000
SPECI KLAA 270008Z AUTO 03005KT 7SM FEW018 SCT033 OVC055 M05/M07 A3001
       RMK AO2 T10501072

METAR KSPD 270056Z AUTO 35007KT M07/M08 A3001 RMK AO1 SLP189
       T10671083
METAR KSPD 262356Z AUTO 36008KT M06/M08 A2997 RMK AO1 SLP175 60003
       T10611083 11033 21061 52027
METAR KSPD 262256Z AUTO 36009KT M06/M08 A2994 RMK AO1 SLP164
       T10561078

Sunrise/Sunset for 12/26/2014
Burlington - 07:07:20 MST / 16:32:17 MST
Pueblo     - 07:13:40 MST / 16:44:45 MST
Lamar      - 07:05:08 MST / 16:37:15 MST

Pueblo (KPUX) 12/27/14 00:51 UTC
Radar VAD winds      Height      Dir/Spd(kt)
                  31000 FT MSL...152/001
                  30000 FT MSL...137/001
                  27000 FT MSL...192/001
                  25000 FT MSL...238/001
                  22000 FT MSL...232/005
                  21000 FT MSL...233/007
                  20000 FT MSL...221/006
                  19000 FT MSL...242/006
                  17000 FT MSL...201/006
                  16000 FT MSL...284/025
                  13000 FT MSL...217/027
                  12000 FT MSL...233/022
                  11700 FT MSL...254/010
                  11000 FT MSL...285/008
                  10000 FT MSL...293/011
                   9900 FT MSL...294/011
                   9000 FT MSL...297/010
                   8200 FT MSL...307/008
                   8000 FT MSL...313/008
                   7000 FT MSL...338/010
                   6500 FT MSL...294/011
                   6300 FT MSL...006/005
                   6000 FT MSL...313/015

Pueblo Aviation Discussion
Issued at 2222 UTC Friday, December 26, 2014

.AVIATION...(FOR THE 00Z TAFS THROUGH 00Z SATURDAY EVENING)
ISSUED AT 320 PM MST FRI DEC 26 2014
UPPER LOW CENTER NOW SOUTHEAST OF WOLF CREEK PASS...MOVING SLOWLY 
EAST.  SLOW MOVEMENT OF SYSTEM WILL CONTINUE THREAT OF LIGHT SNOW 
SHOWERS THROUGH THE EVENING.  IMPROVING CONDITIONS SHOULD BE NOTED 
IN MOST AREAS BY 06Z.  HOWEVER...PATCHY FOG AND LOW LEVEL STRATUS 
WILL BE POSSIBLE IN MANY AREAS DUE TO THE FRESH MOISTURE IN THE AIR 
AND COLD TEMPERATURES.  THIS WILL BE ESPECIALLY TRUE IN SNOW COVERED 
AREAS AND LOW LYING SPOTS THAT COLLECT COLD AIR.  EXPECTING VFR ALL 
AREAS AFTER 16Z SATURDAY.


* * * * * Northwest Colorado * * * * *

METAR KCAG 270053Z AUTO 24011KT 5SM -SN BR OVC026 M09/M12 A2996 RMK AO2
       SLP207 P0000 T10941117
SPECI KCAG 270043Z AUTO 24010KT 3SM -SN BR OVC028 M09/M12 A2995 RMK AO2
       P0000 T10941117
METAR KCAG 262353Z AUTO 25010KT 4SM -SN BR OVC033 M09/M12 A2992 RMK AO2
       SLP196 P0000 60000 T10941117 11078 21094 53023

METAR KHDN 270055Z AUTO 27008KT 8SM SCT027 BKN034 BKN043 M11/M13 A2992
       RMK AO1
METAR KHDN 270035Z AUTO 27009KT 10SM SCT030 BKN043 M11/M13 A2991 RMK
       AO1
METAR KHDN 270015Z AUTO 27010KT 7SM BKN030 M11/M13 A2990 RMK AO1


METAR K33V 270055Z AUTO 31005KT 10SM BKN019 BKN070 OVC090 M13/M17 A2983
       RMK AO2
METAR K33V 270035Z AUTO 33007KT 7SM SCT019 SCT070 OVC100 M13/M17 A2982
       RMK AO2
METAR K33V 270014Z AUTO 34008KT 10SM BKN070 BKN085 OVC100 M13/M17 A2981
       RMK AO2

METAR KEEO 270053Z AUTO 24005KT 2 1/2SM -SN OVC022 M09/M12 A2995 RMK AO2
       SLP190 P0000 T10891117
SPECI KEEO 270045Z AUTO 25007KT 2 1/2SM -SN OVC022 M09/M12 A2994 RMK AO2
       P0000 T10891117
SPECI KEEO 270031Z AUTO 26007KT 1 3/4SM -SN OVC018 M08/M12 A2993 RMK AO2
       P0000 T10831117

METAR K20V 270055Z AUTO 34009G15KT 10SM SCT035 SCT041 OVC085 M08/M15
       A2986 RMK AO2
METAR K20V 270035Z AUTO 35010KT 10SM SCT030 BKN040 OVC085 M08/M14 A2985
       RMK AO2
METAR K20V 270016Z AUTO 34009KT 5SM -SN BKN026 BKN032 OVC041 M08/M13
       A2983 RMK AO2

METAR K0CO 270052Z AUTO 1/4SM HZ OVC001 M19/M22 A2965 RMK AO2 P0002
METAR K0CO 270032Z AUTO 1/2SM -SN OVC001 M18/M22 A2965 RMK AO2 P0002
METAR K0CO 270012Z AUTO 1/4SM HZ OVC001 M18/M21 A2964 RMK AO2

KGJT 262326Z 2700/2724 27009KT P6SM VCSH SCT030 OVC040
      TEMPO 2700/2702 5SM -SN BR BKN030
     FM270300 04005KT P6SM BKN080
     FM270800 08005KT P6SM BKN080
     FM271200 06004KT P6SM VCFG FEW010 SCT200
     FM271900 VRB04KT P6SM SCT110 BKN200
METAR KGJT 270053Z 06005KT 10SM BKN035 OVC044 M04/M07 A2999 RMK AO2
       SLP184 T10441067
METAR KGJT 262353Z 04005KT 10SM OVC041 M04/M06 A2995 RMK AO2 SLP170
       60002 T10391061 11022 21044 53028
SPECI KGJT 262300Z 34003KT 10SM SCT033 BKN044 OVC050 M03/M07 A2992 RMK
       AO2 T10331067

KRIL 262326Z 2700/2724 30012KT P6SM VCSH FEW025 SCT040 OVC070
      TEMPO 2700/2702 4SM -SN BR BKN025
     FM270200 VRB04KT P6SM VCSH BKN050
     FM271100 27002KT P6SM BKN100
     FM271800 VRB03KT P6SM SCT100 BKN200
METAR KRIL 270053Z AUTO 29010KT 10SM BKN045 OVC075 M06/M13 A2996 RMK AO2
       SLP182 T10561133
METAR KRIL 262353Z AUTO 28012KT 10SM OVC070 M05/M12 A2992 RMK AO2
       UPB19E29 SLP168 P0000 60000 T10501122 11022 21050 53030
METAR KRIL 262253Z AUTO 29016KT 10SM SCT055 OVC075 M04/M11 A2989 RMK AO2
       SLP154 T10441111

METAR K5SM 270100Z AUTO 00000KT 2 1/2SM -SN OVC001 A2977 RMK AO2
METAR K5SM 270040Z AUTO 00000KT 3SM -SN OVC001 A2976 RMK AO2
METAR K5SM 270020Z AUTO 00000KT 2SM -SN OVC001 A2975 RMK AO2

KEGE 262326Z 2700/2724 27003KT P6SM VCSH SCT020 BKN060
      TEMPO 2700/2702 3SM -SN BR FEW010 BKN025
     FM270200 20005KT P6SM VCSH BKN040
     FM270600 00000KT 4SM BR OVC020
     FM271500 00000KT P6SM VCFG SCT020 OVC060
     FM271800 VRB03KT P6SM SCT060 BKN120 AMD LTD TO CLD VIS AND
      WIND 2706/2714
METAR KEGE 262350Z 26011KT 3SM -SN BR OVC030 M06/M08 A2984
SPECI KEGE 262338Z 24012KT 3SM -SN BR OVC030 M05/M07 A2983
SPECI KEGE 262305Z 26009KT 2SM -SN BR FEW010 SCT020 OVC030 M04/M07
       A2982

KASE 262326Z 2700/2724 33005KT 4SM -SN BR FEW018 BKN035 OVC050
      TEMPO 2700/2702 P6SM NSW SCT030 OVC050
     FM270200 34005KT P6SM VCSH OVC025
     FM270600 27004KT 4SM BR BKN020 OVC040
     FM271100 29003KT P6SM OVC050
     FM271800 34005KT P6SM SCT050 BKN120
SPECI KASE 270101Z 33007KT 3SM -SN BR OVC018 M09/M12 A2984 RMK AO2 P0000
       T10941117
METAR KASE 270053Z 34010KT 2SM -SN BR BKN018 OVC023 M09/M12 A2983 RMK
       AO2 SNB05 SLP128 P0000 T10941117
SPECI KASE 270027Z 32010KT 3SM -SN OVC022 M09/M12 A2981 RMK AO2 SNB05
       P0000 T10891122

METAR KCCU 270056Z AUTO 28015KT 1 1/2SM -SN BKN008 OVC011 M13/M18 A2968
       RMK AO2
METAR KCCU 270036Z AUTO 28014KT 1SM -SN BKN006 OVC012 M13/M18 A2967 RMK
       AO2
METAR KCCU 270016Z AUTO 00000KT 1/4SM SN OVC004 M13/M17 A2966 RMK
       AO2

METAR KLXV 270053Z AUTO 16003KT 3SM -SN BR OVC027 M16/M18 A2974 RMK AO2
       SNE11B36 SLP118 P0000 T11561178
SPECI KLXV 270043Z AUTO 16004KT 2SM -SN BR BKN023 OVC090 M16/M18 A2973
       RMK AO2 SNE11B36 P0000 T11561178
SPECI KLXV 270035Z AUTO 16004KT 2SM BR BKN033 OVC090 M16/M17 A2973 RMK
       AO2 SNE11 P0000 T11561172

Sunrise/Sunset for 12/26/2014
Rangely           - 07:35:44 MST / 16:55:58 MST
Grand Junction    - 07:31:49 MST / 16:58:04 MST
Steamboat Springs - 07:29:06 MST / 16:46:56 MST

Grand Junction (KGJX) 12/27/14 00:49 UTC
Radar VAD winds      Height      Dir/Spd(kt)
                  20000 FT MSL...303/018
                  19000 FT MSL...312/012
                  18000 FT MSL...309/010
                  18000 FT MSL...310/010
                  17000 FT MSL...275/014
                  16300 FT MSL...257/007
                  16000 FT MSL...266/008
                  15000 FT MSL...265/008
                  14600 FT MSL...265/009
                  14000 FT MSL...262/008
                  13000 FT MSL...267/010
                  12900 FT MSL...269/010
                  12000 FT MSL...282/008
                  11100 FT MSL...298/007
                  11000 FT MSL...319/006
                  11000 FT MSL...300/006
                  10400 FT MSL...312/008

Grand Junction Aviation Discussion
Issued at 2359 UTC Friday, December 26, 2014

.AVIATION...(FOR THE 00Z TAFS THROUGH 00Z SATURDAY EVENING)
ISSUED AT 457 PM MST FRI DEC 26 2014
LOCAL IFR CIGS AND VSBYS WILL CONTINUE ACROSS WESTERN COLORADO AND
PORTIONS OF EASTERN UTAH WITH MOUNTAINS REMAINING OBSCURED THROUGH
THIS EVENING. EXPECT LIGHT SNOW SHOWERS TO END FROM WEST TO EAST
AFTER 06Z THIS EVENING...WITH AREAS OF FOG DEVELOPING OVER THE
VALLEYS. THE FOG WILL LIKELY PERSIST THROUGH 15Z SATURDAY...BEFORE
CONDITIONS IMPROVE. VFR WEATHER IS EXPECTED TO RETURN TO ALL SITES
BY MIDDAY SATURDAY.  


* * * * * Southwest Colorado * * * * *

METAR KAJZ 270055Z AUTO 00000KT 10SM SCT043 BKN060 OVC070 M01/M07 A2993
       RMK AO2 T10061075
METAR KAJZ 270035Z AUTO 28008KT 10SM SCT046 OVC060 00/M07 A2992 RMK AO2
       T10051075
METAR KAJZ 270015Z AUTO 00000KT 10SM BKN050 OVC055 00/M05 A2990 RMK AO2
       T10021055

KMTJ 262326Z 2700/2724 31008KT P6SM VCSH SCT030 OVC040
      TEMPO 2700/2702 5SM -SN BR BKN030
     FM270200 13005KT P6SM VCSH OVC050
     FM270600 28005KT P6SM VCSH BKN050
     FM271300 13004KT P6SM BKN100
     FM271800 34004KT P6SM SCT100 BKN200
METAR KMTJ 270053Z AUTO 30010KT 10SM OVC043 M04/M08 A2996 RMK AO2 SNE41
       SLP163 P0000 T10441083
SPECI KMTJ 270032Z AUTO 30008KT 4SM -SN OVC035 M04/M08 A2994 RMK AO2
       P0000 T10441078
SPECI KMTJ 270013Z AUTO 29010KT 3SM -SN OVC017 M04/M08 A2993 RMK AO2
       P0000 T10441078

METAR KGUC 270055Z AUTO 00000KT 10SM FEW023 M12/M17 A2986 RMK AO1
METAR KGUC 270035Z AUTO 00000KT 10SM CLR M11/M12 A2984 RMK AO1
METAR KGUC 270015Z AUTO 15003KT 10SM CLR M11/M16 A2983 RMK AO1

METAR K7BM 270054Z AUTO 00000KT 2SM -SN BKN008 BKN014 OVC022 M12/M15
       A2976 RMK AO2
METAR K7BM 270034Z AUTO 00000KT 1 1/4SM -SN OVC006 M11/M14 A2975 RMK
       AO2
METAR K7BM 270014Z AUTO 00000KT 1 3/4SM -SN SCT008 BKN012 OVC018 M11/M14
       A2974 RMK AO2

METAR KAEJ 270055Z AUTO 00000KT 5SM -SN SCT018 BKN032 OVC070 M11/M13
       A2984 RMK AO2 T11101133
METAR KAEJ 270035Z AUTO 12003KT 10SM -SN SCT018 BKN030 OVC042 M11/M13
       A2983 RMK AO2 T11071130
METAR KAEJ 270015Z AUTO 14003KT 7SM SCT018 BKN022 OVC042 M11/M13 A2982
       RMK AO2 T11061128

METAR KANK 270055Z AUTO 25005KT 10SM SCT100 M15/M16 A2993 RMK AO1
       T11461161
METAR KANK 270035Z AUTO 00000KT 10SM BKN090 M14/M16 A2993 RMK AO1
       T11391159
METAR KANK 270015Z AUTO 17004KT 10SM BKN090 BKN120 M10/M11 A2992 RMK AO1
       T11001113

METAR KMYP 270058Z AUTO OVC002 M16/M18 A2979 RMK AO2 PWINO
METAR KMYP 270037Z AUTO 19045KT 170V270 OVC002 M16/M18 A2977 RMK AO2
       PWINO
METAR KMYP 270020Z AUTO OVC002 M16/M18 A2976 RMK AO2 PWINO

METAR KAIB 270055Z AUTO 30010KT 10SM SCT041 SCT060 OVC070 M04/M09 A2998
       RMK AO2
METAR KAIB 270035Z AUTO 30010KT 10SM SCT029 BKN041 OVC100 M04/M10 A2997
       RMK AO2
METAR KAIB 270015Z AUTO 30012G15KT 10SM SCT017 BKN030 OVC036 M03/M10
       A2996 RMK AO2

KTEX 262326Z 2700/2724 27006KT 3SM -SN BR BKN016 OVC030
      TEMPO 2700/2702 2SM -SN BKN008
     FM270200 14005KT P6SM VCSH OVC050
     FM270600 16004KT P6SM VCSH SCT035 OVC050
     FM271100 21003KT P6SM BKN090
     FM271800 24006KT P6SM SCT070 BKN110
METAR KTEX 270055Z AUTO 26009G14KT 1SM -SN OVC006 M10/M11 A2984 RMK AO2
       T10981106
METAR KTEX 270035Z AUTO 27003KT 7SM -SN SCT014 BKN044 OVC080 M10/M11
       A2983 RMK AO2 T10961115
METAR KTEX 270015Z AUTO 26008KT 7SM -SN SCT016 BKN048 OVC085 M09/M12
       A2981 RMK AO2 T10951116

METAR K04V 270054Z AUTO 03004KT 10SM CLR M16/M18 A2982 RMK AO2
METAR K04V 270028Z AUTO 03003KT 10SM SCT050 M15/M16 A2980 RMK AO2
METAR K04V 270004Z AUTO 00000KT 5SM -SN SCT036 SCT042 OVC060 M11/M13
       A2979 RMK AO2

METAR KCEZ 270053Z AUTO 20004KT 10SM BKN032 M07/M08 A2994 RMK AO2 SLP176
       T10671083
METAR KCEZ 262353Z AUTO 31007KT 8SM FEW030 BKN039 OVC055 M04/M06 A2991
       RMK AO2 SNB18E49 SLP148 P0000 60000 T10391061 11006 21039
       53027
SPECI KCEZ 262345Z AUTO 31006KT 3SM -SN BR FEW030 BKN039 OVC050 M03/M06
       A2990 RMK AO2 SNB18 P0000 T10331056

KDRO 262326Z 2700/2724 24008KT P6SM VCSH SCT030 BKN060
      TEMPO 2700/2702 24015G25KT 4SM -SHSN BR BKN030
     FM270200 23007KT P6SM VCSH OVC060
     FM270600 02004KT P6SM SCT060 BKN080
     FM271100 VRB03KT 5SM BR BKN020 OVC040
     FM271600 VRB03KT P6SM VCFG SCT020 BKN060
     FM271800 14004KT P6SM SCT060 BKN140
METAR KDRO 270053Z AUTO 23010KT 10SM CLR M07/M10 A2987 RMK AO2 SLP166
       T10671100
METAR KDRO 262353Z AUTO 24013G17KT 10SM CLR M06/M09 A2984 RMK AO2
       UPE2259 SLP152 P0000 60000 T10561089 11028 21056 53029
METAR KDRO 262253Z AUTO 24017G23KT 6SM UP CLR M04/M09 A2981 RMK AO2
       UPB50 SLP136 P0000 T10441089

METAR KPSO 270055Z AUTO 20009KT 3SM -SN SCT014 BKN019 OVC024 M06/M09
       A2987 RMK AO2 T10611091
METAR KPSO 270035Z AUTO 21008KT 4SM -SN SCT010 OVC019 M06/M09 A2985 RMK
       AO2 T10601088
METAR KPSO 270015Z AUTO 21009KT 2 1/2SM -SN SCT010 BKN014 OVC019 M06/M07
       A2983 RMK AO2 VIS 1 3/4V3 T10581074

METAR KCPW 270058Z AUTO OVC001 M16/M17 A2971 RMK AO2 P0004 PWINO
METAR KCPW 270037Z AUTO OVC001 M16/M17 A2970 RMK AO2 P0003 PWINO
METAR KCPW 270017Z AUTO OVC001 M16/M17 A2969 RMK AO2 P0002 PWINO

KALS 262324Z 2700/2724 VRB06KT P6SM VCSH FEW045 BKN070 OVC090
     FM270800 VRB04KT P6SM SCT010 SCT050
METAR KALS 270052Z AUTO 00000KT 7SM -SN OVC041 M07/M11 A2981 RMK AO2
       SLP131 P0000 T10671106 $
SPECI KALS 270024Z AUTO 03005KT 6SM -SN OVC032 M07/M11 A2979 RMK AO2
       P0000 T10671111 $
SPECI KALS 270014Z AUTO 02006KT 4SM -SN BKN025 OVC070 M07/M11 A2978 RMK
       AO2 P0000 T10671111 $

Sunrise/Sunset for 12/26/2014
Vail    - 07:24:41 MST / 16:47:38 MST
Durango - 07:23:54 MST / 17:00:31 MST
Alamosa - 07:16:25 MST / 16:52:01 MST

Grand Junction (KGJX) 12/27/14 00:49 UTC
Radar VAD winds      Height      Dir/Spd(kt)
                  20000 FT MSL...303/018
                  19000 FT MSL...312/012
                  18000 FT MSL...309/010
                  18000 FT MSL...310/010
                  17000 FT MSL...275/014
                  16300 FT MSL...257/007
                  16000 FT MSL...266/008
                  15000 FT MSL...265/008
                  14600 FT MSL...265/009
                  14000 FT MSL...262/008
                  13000 FT MSL...267/010
                  12900 FT MSL...269/010
                  12000 FT MSL...282/008
                  11100 FT MSL...298/007
                  11000 FT MSL...319/006
                  11000 FT MSL...300/006
                  10400 FT MSL...312/008

Grand Junction Aviation Discussion
Issued at 2359 UTC Friday, December 26, 2014

.AVIATION...(FOR THE 00Z TAFS THROUGH 00Z SATURDAY EVENING)
ISSUED AT 457 PM MST FRI DEC 26 2014
LOCAL IFR CIGS AND VSBYS WILL CONTINUE ACROSS WESTERN COLORADO AND
PORTIONS OF EASTERN UTAH WITH MOUNTAINS REMAINING OBSCURED THROUGH
THIS EVENING. EXPECT LIGHT SNOW SHOWERS TO END FROM WEST TO EAST
AFTER 06Z THIS EVENING...WITH AREAS OF FOG DEVELOPING OVER THE
VALLEYS. THE FOG WILL LIKELY PERSIST THROUGH 15Z SATURDAY...BEFORE
CONDITIONS IMPROVE. VFR WEATHER IS EXPECTED TO RETURN TO ALL SITES
BY MIDDAY SATURDAY.  


* * * * * Arizona * * * * *

KPGA 262324Z 2700/2724 31008KT P6SM SCT050
     FM270200 VRB04KT P6SM BKN050
     FM271100 VRB05KT P6SM SCT050
METAR KPGA 270053Z AUTO 28007KT 10SM SCT075 03/M13 A2998 RMK AO2 SLP156
       T00281133 TSNO
METAR KPGA 262353Z AUTO 29006KT 10SM BKN070 04/M13 A2995 RMK AO2 SLP144
       T00441133 10056 20033 53020 TSNO
METAR KPGA 262253Z AUTO 27008KT 10SM CLR 05/M14 A2992 RMK AO2 SLP132
       T00501139 TSNO

METAR KRQE 270053Z AUTO 18003KT 10SM SCT035 SCT055 BKN070 M06/M11 A2995
       RMK AO2 SLP161 T10561106 TSNO
METAR KRQE 262353Z AUTO 18003KT 10SM FEW060 M06/M11 A2992 RMK AO2 SLP156
       60000 T10611106 11022 21061 53021 TSNO
METAR KRQE 262253Z AUTO 26008KT 9SM BKN030 M03/M10 A2989 RMK AO2
       SNB35E48 SLP136 P0000 T10331100 TSNO

Flagstaff (KFSX) 12/27/14 00:48 UTC
Radar VAD winds      Height      Dir/Spd(kt)
                  18000 FT MSL...308/001
                  17000 FT MSL...309/001
                  16000 FT MSL...256/001
                  15300 FT MSL...275/001
                  15000 FT MSL...214/001
                  14000 FT MSL...263/003
                  13700 FT MSL...297/006
                  13000 FT MSL...311/008
                  12000 FT MSL...301/012
                  12000 FT MSL...317/011
                  11000 FT MSL...319/013
                  10200 FT MSL...318/012
                  10000 FT MSL...316/013
                   9000 FT MSL...307/010
                   8500 FT MSL...303/009
                   8400 FT MSL...289/005
                   8000 FT MSL...314/020

Flagstaff Aviation Discussion
Issued at 2232 UTC Friday, December 26, 2014

.AVIATION...
FOR THE 00Z PACKAGE...A FEW SHOWERS WILL CONTINUE INTO THE EVENING
HOURS IN NORTHEASTERN ARIZONA. MOSTLY VFR CONDITIONS WILL
PREVAIL WITH ISOLATED IFR CONDITIONS. AVIATION DISCUSSION NOT
UPDATED FOR TAF AMENDMENTS.


* * * * * Utah * * * * *

KSLC 262329Z 2700/2806 34008KT P6SM SCT070
     FM271000 15004KT P6SM SKC
     FM271900 33006KT P6SM SCT100 BKN150
METAR KSLC 270053Z 36006KT 10SM FEW065 FEW100 SCT200 M04/M09 A3013 RMK
       AO2 SLP228 T10391094
METAR KSLC 262353Z 35005KT 10SM FEW060 FEW090 SCT150 SCT210 M04/M09
       A3011 RMK AO2 SLP221 ACSL DSNT W 4/002 T10441094 11011 21044
       51021
METAR KSLC 262253Z 35007KT 10SM FEW055 FEW085 SCT140 SCT210 M02/M08
       A3008 RMK AO2 SLP211 ACSL DSNT E AND W T10221078

KVEL 262326Z 2700/2724 VRB05KT P6SM SCT050 BKN070
     FM270200 36005KT P6SM SCT060 BKN100
     FM270600 29004KT P6SM SCT060 BKN120
     FM271700 00000KT P6SM SCT080 BKN150
METAR KVEL 270053Z AUTO 05008KT 10SM OVC060 M04/M12 A3001 RMK AO2 SLP202
       T10441122
METAR KVEL 262353Z AUTO VRB06KT 10SM OVC060 M04/M10 A2998 RMK AO2 SLP188
       T10391100 11017 21039 51024
METAR KVEL 262253Z AUTO 23006KT 10SM OVC075 M04/M08 A2995 RMK AO2 SLP179
       T10391083

METAR KPUC 270053Z AUTO 33015G20KT 10SM SCT065 M05/M14 A2997 RMK AO2
       SLP203 T10501144
METAR KPUC 262353Z AUTO 33012G18KT 10SM CLR M04/M14 A2993 RMK AO2 SLP190
       T10391139 11011 21039 53023
METAR KPUC 262253Z AUTO 32015G22KT 10SM BKN095 M02/M13 A2990 RMK AO2
       SLP172 T10221133

KCNY 262326Z 2700/2724 34004KT P6SM FEW070 BKN140
     FM270200 34005KT P6SM SCT050 BKN080
     FM270600 34004KT P6SM BKN080
     FM271200 00000KT P6SM VCFG FEW015
     FM271700 34004KT P6SM SCT060 BKN200
METAR KCNY 270053Z AUTO 05006KT 10SM OVC065 M06/M09 A2999 RMK AO2 SLP192
       T10611089
METAR KCNY 262353Z AUTO 00000KT 10SM BKN080 M06/M09 A2996 RMK AO2 SLP179
       T10561089 11011 21061 53024
METAR KCNY 262253Z AUTO 00000KT 10SM FEW080 M04/M08 A2994 RMK AO2 SLP166
       T10391078


Salt Lake City (KMTX) 12/27/14 00:53 UTC
Radar VAD winds      Height      Dir/Spd(kt)
                  18000 FT MSL...249/003
                  15000 FT MSL...280/018
                  14400 FT MSL...042/007
                  10000 FT MSL...073/004
                   9300 FT MSL...018/001
                   9000 FT MSL...021/001
                   7600 FT MSL...012/001
                   7500 FT MSL...356/012
                   7000 FT MSL...321/003
                   6900 FT MSL...032/010

Salt Lake City Aviation Discussion
Issued at 2308 UTC Friday, December 26, 2014

.AVIATION...AT THE SLC TERMINAL...CIGS WILL BE GENERALLY REMAIN 
ABOVE 7K FT AGL THROUGH THE REMAINDER OF THE AFTERNOON AND EVENING 
WITH ONLY A 20 PERCENT CHANCE OF OCCASIONALLY LOWERING BELOW 6K FT 
AGL. WINDS WILL REMAIN NORTHERLY THROUGH THIS EVENING WITH A SWITCH 
TO THE SOUTHEAST BETWEEN 09 AND 11Z.
 


* * * * * Wyoming * * * * *

KEVW 262329Z 2700/2724 02007KT 5SM -SN BR BKN025
      TEMPO 2700/2702 1 1/2SM -SN BR BKN015 OVC025
     FM270200 27005KT P6SM BKN050
     FM270600 22004KT P6SM VCFG FEW050
     FM271600 23006KT P6SM SKC=
METAR KEVW 270053Z AUTO 35007KT 1SM -SN BR VV014 M09/M11 A2998 RMK AO2
       SLP208 P0001 T10941106
SPECI KEVW 270015Z AUTO 35007KT 1SM -SN BR VV014 M09/M11 A2996 RMK AO2
       P0000 T10891106
SPECI KEVW 270012Z AUTO 34006KT 3/4SM -SN BR VV016 M09/M11 A2996 RMK AO2
       P0000 T10891106

KRKS 262321Z 2700/2724 04010KT P6SM VCSH SCT035 BKN050
      TEMPO 2700/2702 5SM -SN BKN035
     FM270700 24008KT P6SM SCT060
     FM271700 24020G28KT P6SM SCT025 BKN060
METAR KRKS 270054Z AUTO 02004KT 2SM -SN BR OVC014 M11/M12 A2998 RMK AO2
       SLP227 P0000 T11061122
SPECI KRKS 270045Z AUTO 04004KT 1SM -SN BR OVC014 M10/M12 A2998 RMK AO2
       P0000 T11001117
SPECI KRKS 270015Z AUTO 36005KT 1 1/2SM -SN BR SCT016 OVC022 M10/M12
       A2997 RMK AO2 P0000 T11001122

KRWL 262325Z 2700/2724 02009KT 4SM BR OVC040
      TEMPO 2700/2703 2SM BR OVC025
     FM270300 34006KT 2SM BR OVC015
     FM271500 24020G30KT P6SM BKN035
     FM271900 24025G38KT P6SM BKN090
METAR KRWL 270053Z AUTO 35007KT 10SM OVC070 M13/M16 A2995 RMK AO2 SLP220
       T11281156
SPECI KRWL 270001Z AUTO 36007KT 10SM SCT023 OVC075 M14/M17 A2993 RMK AO2
       T11441167
METAR KRWL 262353Z AUTO 36007KT 10SM BKN027 BKN065 OVC080 M14/M17 A2992
       RMK AO2 SLP215 60000 T11441167 11094 21144 53014

KLAR 262325Z 2700/2724 01008KT 1SM -SN BR OVC030
      TEMPO 2700/2703 3/4SM -SN BR OVC015
     FM270300 10006KT 1SM BR OVC015
     FM271500 21008KT P6SM SCT080
     FM271800 24018G30KT P6SM SCT080
METAR KLAR 270053Z AUTO 32006KT 4SM -SN BR OVC046 M14/M16 A2988 RMK AO2
       SLP212 P0000 T11391156
SPECI KLAR 270050Z AUTO 33006KT 3SM -SN BR OVC046 M14/M16 A2988 RMK AO2
       P0000
METAR KLAR 262353Z AUTO 33008KT 2 1/2SM -SN BR OVC032 M14/M16 A2986 RMK
       AO2 SLP199 P0000 60000 T11391156 11117 21139 53015

KCYS 262325Z 2700/2724 01006KT 2SM -SN BR OVC030
      TEMPO 2700/2702 3/4SM -SN BR OVC025
     FM270200 01005KT 3/4SM -SN BR OVC015
     FM270800 29007KT P6SM OVC025
     FM271500 27014G25KT P6SM SCT050
METAR KCYS 270053Z 34006KT 1 1/4SM -SN OVC033 M11/M13 A2994 RMK AO2 SFC
       VIS 2 1/2 SLP223 P0001 T11061133
SPECI KCYS 270015Z 34005KT 1 1/4SM -SN BR OVC035 M11/M13 A2993 RMK AO2
       SFC VIS 3 P0001 T11111133
METAR KCYS 262353Z 36005KT 1 1/4SM -SN BR OVC025 M11/M13 A2992 RMK AO2
       SFC VIS 2 SNB2255 SLP216 P0000 60000 T11111133 11083 21111
       53014

Riverton (KRIW) 12/27/14 00:46 UTC
Radar VAD winds      Height      Dir/Spd(kt)
                  16000 FT MSL...331/008
                  15000 FT MSL...322/008
                  14000 FT MSL...302/007
                  13600 FT MSL...301/007
                  13000 FT MSL...309/007
                  12000 FT MSL...326/008
                  11900 FT MSL...330/008
                  11000 FT MSL...338/008
                  10200 FT MSL...360/012
                  10000 FT MSL...002/013
                   9000 FT MSL...015/016
                   8500 FT MSL...004/013
                   8000 FT MSL...005/016
                   6700 FT MSL...344/006
                   6600 FT MSL...344/004
                   6000 FT MSL...151/006
                   6000 FT MSL...306/005

Cheyenne (KCYS) 12/27/14 00:46 UTC
Radar VAD winds      Height      Dir/Spd(kt)
                  21000 FT MSL...313/008
                  20000 FT MSL...316/009
                  19000 FT MSL...323/010
                  18000 FT MSL...334/008
                  17000 FT MSL...343/007
                  16000 FT MSL...343/007
                  15000 FT MSL...319/006
                  14000 FT MSL...293/003
                  14000 FT MSL...302/002
                  13000 FT MSL...022/007
                  12400 FT MSL...018/009
                  12000 FT MSL...015/009
                  11000 FT MSL...358/008
                  10600 FT MSL...352/008
                  10000 FT MSL...349/007
                   9000 FT MSL...357/007
                   8900 FT MSL...359/007
                   8000 FT MSL...010/011
                   7200 FT MSL...006/013
                   7100 FT MSL...001/014
                   7000 FT MSL...002/014
                   6500 FT MSL...358/011

Riverton Aviation Discussion
Issued at 2144 UTC Friday, December 26, 2014

.AVIATION.../00Z ISSUANCE/
EAST OF THE DIVIDE...KCOD/KCPR/KLND/KRIW/KWRL ROUTES
LCL MVFR CONDITIONS DUE TO CIGS ARE EXPECTED THROUGH 03Z WITH
FLURRIES AND WIDELY SCT SNOW SHOWERS THIS EVENING.  AREAS OF IFR
CEILINGS AND VISIBILITIES REDUCED IN FOG WILL DEVELOP FROM 09Z TO
18Z.  
WEST OF THE DIVIDE...KBPI/KJAC/KPNA/KRKS ROUTES
AREAS OF LOW CLOUDS WILL CONTINUE THROUGH 03Z WITH AREAS OF CIGS
AROUND 030-040 CREATING AREAS OF MTN OBSCURATIONS. AREAS OF IFR
CEILINGS AND VISIBILITIES REDUCED IN FOG WILL DEVELOP FROM 09Z TO
18Z.

Cheyenne Aviation Discussion
Issued at 2245 UTC Friday, December 26, 2014

.AVIATION...(FOR THE 00Z TAFS THROUGH 00Z SATURDAY EVENING)
ISSUED AT 302 PM MST FRI DEC 26 2014
MOUNTAINS MOSTLY OBSCURED. CEILINGS AND VISIBILITIES 
GRADUALLY IMPROVING TO MVFR AND VFR THIS EVENING...WITH MVFR AND 
OCCASIONAL IFR PREVAILING TONIGHT IN FOG AND LOW CLOUDS...ESPECIALLY 
WEST OF INTERSTATE 25...THEN BECOMING ALL VFR LATE TONIGHT AND 
SATURDAY MORNING. AREAS OF BLOWING SNOW POSSIBLE SATURDAY AFTERNOON 
IN THE RAWLINS TAF.


* * * * * Nebraska * * * * *

METAR KIBM 270055Z AUTO 33004KT 2SM -SN OVC011 M09/M10 A2999 RMK AO2
       T10931105
METAR KIBM 270035Z AUTO 34004KT 2 1/2SM -SN OVC015 M09/M10 A2998 RMK AO2
       T10931104
METAR KIBM 270015Z AUTO 35006KT 4SM -SN OVC015 M09/M10 A2997 RMK AO2
       T10931103

KSNY 262325Z 2700/2724 36013KT 1SM -SN BR OVC025
      TEMPO 2700/2702 3/4SM -SN BR OVC009
     FM270200 33008KT 1SM BR OVC008
     FM270800 29009KT 4SM BR OVC015
     FM271500 29012KT P6SM BKN050
METAR KSNY 270053Z AUTO 34005KT 2 1/2SM -SN BR FEW009 OVC026 M09/M11
       A3004 RMK AO2 SLP229 P0000 T10891111
SPECI KSNY 270036Z AUTO 35007KT 2 1/2SM -SN BR FEW009 OVC026 M09/M11
       A3003 RMK AO2 P0000 T10891111
SPECI KSNY 270025Z AUTO 35008KT 2 1/2SM -SN BR FEW010 OVC028 M09/M11
       A3003 RMK AO2 P0000 T10891111

METAR KOGA 270055Z AUTO 36009KT 3SM -SN BKN009 BKN016 OVC022 M07/M08
       A3007 RMK AO2 T10661084
METAR KOGA 270035Z AUTO 36010KT 2 1/2SM -SN BKN009 BKN016 OVC021 M06/M08
       A3006 RMK AO2 T10651080
METAR KOGA 270015Z AUTO 01010G15KT 2 1/2SM -SN OVC009 M06/M08 A3005 RMK
       AO2 T10631077

METAR KIML 270053Z AUTO 35012KT 1 1/4SM -SN BR OVC014 M07/M09 A3006 RMK
       AO2 SLP221 P0000 T10671089
SPECI KIML 270041Z AUTO 35011KT 1SM -SN BR VV016 M07/M09 A3006 RMK AO2
       P0000 T10671089
SPECI KIML 270030Z AUTO 35013KT 2 1/2SM -SN BR FEW015 OVC025 M07/M09
       A3005 RMK AO2 P0000 T10671089

KMCK 262320Z 2700/2724 01013G19KT 3SM -SN BR SCT015 BKN035
      TEMPO 2700/2702 1SM -SN BR BKN015
     FM270200 33011KT 1SM -SN BR BKN008
      TEMPO 2704/2708 4SM -SHSN BKN025
     FM270800 32007KT P6SM SCT025 SCT050 BKN100
     FM271700 28008KT P6SM SKC
METAR KMCK 270053Z AUTO 33008KT 9SM FEW026 OVC037 M05/M07 A3006 RMK AO2
       SNB08E17 SLP210 P0000 T10501067
METAR KMCK 262353Z AUTO 36009KT 6SM BR FEW047 OVC080 M05/M07 A3003 RMK
       AO2 SNE49 SLP199 P0000 60000 T10501067 11028 21050 51014
SPECI KMCK 262341Z AUTO 35006KT 4SM -SN BR BKN045 OVC080 M05/M07 A3003
       RMK AO2 P0000 T10501067

North Platte (KLNX) 12/27/14 00:52 UTC
Radar VAD winds      Height      Dir/Spd(kt)
                  22000 FT MSL...186/035
                  20000 FT MSL...191/034
                  19000 FT MSL...195/032
                  18000 FT MSL...200/029
                  17000 FT MSL...203/021
                  16000 FT MSL...192/014
                  15000 FT MSL...200/010
                  14000 FT MSL...203/007
                  13000 FT MSL...171/003
                  12000 FT MSL...114/003
                  11000 FT MSL...067/005
                  11000 FT MSL...071/004
                  10000 FT MSL...048/008
                   9300 FT MSL...038/010
                   9000 FT MSL...027/013
                   8000 FT MSL...019/016
                   7600 FT MSL...018/017
                   7000 FT MSL...017/018
                   6000 FT MSL...004/024
                   5900 FT MSL...005/024
                   5000 FT MSL...005/024
                   4100 FT MSL...004/022
                   4000 FT MSL...007/020
                   4000 FT MSL...005/021
                   3400 FT MSL...010/016

North Platte Aviation Discussion
Issued at 2345 UTC Friday, December 26, 2014

.AVIATION...(FOR THE 00Z TAFS THROUGH 00Z SATURDAY EVENING)
ISSUED AT 545 PM CST FRI DEC 26 2014
AN UPPER LEVEL TROUGH OF LOW PRESSURE WILL LIFT ACROSS
SOUTHWESTERN AND CENTRAL NEBRASKA THIS EVENING. LIGHT SNOW WILL BE
POSSIBLE AT THE KLBF TERMINAL THIS EVENING...ENDING IN THE
OVERNIGHT HOURS. FOR THE KLBF TERMINAL...THROUGH 08Z
TONIGHT...LIGHT SNOW WITH VISBYS RANGING FROM 1 TO 3SM ARE LIKELY.
CIGS WILL RANGE FROM 1200 TO 2500 FT AGL THROUGH THIS TIME. SKIES
WILL BEGIN TO CLEAR OVERNIGHT WITH SCATTERED CIGS AT 25000 FT AGL
EXPECTED AFTER 12Z SATURDAY. FOR THE KVTN TERMINAL...EXPECT MVFR
CIGS OF 1500 FT AGL THIS EVENING WITH CIGS AROUND 10000 FT
EXPECTED OVERNIGHT TONIGHT THROUGH 15Z SATURDAY. SKIES WILL CLEAR
BY MID MORNING SATURDAY AND REMAIN CLEAR THROUGH 00Z SUNDAY. 


* * * * * Kansas * * * * *

KGLD 262320Z 2700/2724 36011KT 4SM -SN BR SCT008 BKN035
      TEMPO 2700/2702 1SM -SN BR BKN015
     FM270200 33009KT P6SM -SHSN SCT008 SCT015 BKN035
      TEMPO 2702/2706 3SM -SN BR BKN015
     FM271200 30008KT P6SM SKC
     FM271800 28010KT P6SM SCT080
METAR KGLD 270053Z AUTO 35009KT 2 1/2SM -SN BR OVC024 M07/M08 A3004 RMK
       AO2 SLP211 P0001 T10721083
SPECI KGLD 270029Z AUTO 01011KT 2 1/2SM -SN BR OVC022 M07/M09 A3003 RMK
       AO2 P0001 T10721089
METAR KGLD 262353Z AUTO 01009KT 1 1/2SM -SN BR OVC016 M07/M08 A2999 RMK
       AO2 SLP193 P0001 60003 T10671078 11044 21067 53010

KGCK 262351Z 2700/2724 33010KT P6SM OVC040
     FM270600 32010KT P6SM BKN080
METAR KGCK 270054Z 35008KT 10SM OVC024 M04/M06 A3005 RMK AO2 SLP203
       T10441056
SPECI KGCK 270007Z 35010KT 10SM BKN017 OVC042 M04/M06 A3002 RMK AO2
       T10391056
METAR KGCK 262354Z 35007KT 10SM FEW018 OVC042 M04/M06 A3001 RMK AO2
       SLP187 60000 T10391056 11028 21039 53020

METAR KLBL 270055Z AUTO 36007KT 10SM BKN023 BKN028 M03/M07 A3007 RMK
       AO1
METAR KLBL 270035Z AUTO 35008KT 10SM BKN023 OVC028 M02/M07 A3005 RMK
       AO1
METAR KLBL 270015Z AUTO 34009KT 10SM BKN029 OVC050 M02/M06 A3005 RMK
       AO1

METAR KEHA 270048Z AUTO 34004KT M04/M07 RMK AO1 PK WND 09 000
       T10441072
METAR KEHA 270028Z AUTO 34007KT M04/M08 RMK AO1 PK WND 09 000
       T10391077
METAR KEHA 270008Z AUTO 34004KT M04/M07 RMK AO1 PK WND 10 000
       T10391072

Goodland (KGLD) 12/27/14 00:52 UTC
Radar VAD winds      Height      Dir/Spd(kt)
                  22000 FT MSL...226/023
                  20000 FT MSL...231/024
                  19000 FT MSL...246/026
                  18000 FT MSL...255/027
                  17000 FT MSL...261/028
                  16000 FT MSL...260/025
                  15000 FT MSL...260/023
                  14000 FT MSL...265/022
                  13000 FT MSL...267/021
                  12000 FT MSL...264/018
                  11700 FT MSL...265/016
                  11000 FT MSL...278/011
                  10000 FT MSL...325/011
                  10000 FT MSL...325/011
                   9000 FT MSL...326/012
                   8300 FT MSL...333/013
                   8000 FT MSL...337/013
                   7000 FT MSL...349/017
                   6500 FT MSL...001/017
                   6000 FT MSL...001/018
                   5000 FT MSL...004/019
                   4800 FT MSL...016/020
                   4700 FT MSL...007/018
                   4100 FT MSL...008/014

Dodge City (KDDC) 12/27/14 00:48 UTC
Radar VAD winds      Height      Dir/Spd(kt)
                  13000 FT MSL...220/038
                  12000 FT MSL...221/040
                  11000 FT MSL...231/040
                  10600 FT MSL...233/039
                  10000 FT MSL...237/036
                   9000 FT MSL...246/031
                   9000 FT MSL...246/031
                   8000 FT MSL...249/024
                   7200 FT MSL...273/014
                   7000 FT MSL...285/011
                   6000 FT MSL...332/010
                   5500 FT MSL...344/012
                   5000 FT MSL...347/014
                   4000 FT MSL...349/015
                   3700 FT MSL...338/015
                   3600 FT MSL...346/015
                   3000 FT MSL...351/012
                   3000 FT MSL...351/012

Goodland Aviation Discussion
Issued at 0042 UTC Saturday, December 27, 2014

.AVIATION...(FOR THE 00Z TAFS THROUGH 00Z SATURDAY EVENING)
ISSUED AT 435 PM MST FRI DEC 26 2014
MIX OF VFR/MVFR/IFR CONDITIONS FOR BOTH TAF SITES THRU 08Z-12Z
SATURDAY. VISIBILITY WILL RANGE FROM 1SM TO 4SM AT TIMES IN LIGHT
SNOW...AND CEILINGS BKN-OVC035 DOWN TO BKN-OVC008-015. BETWEEN
08Z-12Z...SKIES WILL BECOME SCT TO SKC AS PRECIP ENDS. WINDS
NORTHERLY 10-15KTS SHIFTING TO WNW THRU FORECAST PERIOD.

Dodge City Aviation Discussion
Issued at 2324 UTC Friday, December 26, 2014

.AVIATION...(FOR THE 00Z TAFS THROUGH 00Z SATURDAY EVENING)
ISSUED AT 518 PM CST FRI DEC 26 2014
MVFR CIGS ARE FORECAST TO GIVE WAY TO SCATTERED TO BROKEN CIGS
WITH VFR CONDITIONS AFTER 06Z AT KDDC AND KGCK, AND AFTER 12Z AT
KHYS. SURFACE HIGH PRESSURE WILL CONTINUE TO BUILD INTO CENTRAL
PLAINS TONIGHT WITH NORTHWEST WINDS AROUND 10KT.


* * * * * Texas/Oklahoma * * * * *

KGUY 262320Z 2700/2724 36010KT P6SM BKN015 BKN060
     FM270900 33009KT 5SM BR OVC015
     FM271800 34008KT P6SM SCT250=
METAR KGUY 270053Z AUTO 35006KT 10SM FEW029 OVC065 M03/M06 A3005 RMK AO2
       SNB20E24 SLP191 P0000 T10281056
SPECI KGUY 270041Z AUTO 36007KT 10SM SCT024 BKN031 OVC065 M02/M06 A3004
       RMK AO2 SNB20E24 P0000 T10221056
SPECI KGUY 270004Z AUTO 36008KT 10SM BKN025 OVC033 M02/M05 A3001 RMK AO2
       T10171050

KDHT 262320Z 2700/2724 35008KT P6SM OVC015
     FM270900 35009KT 5SM BR OVC010
     FM271800 36012KT P6SM SCT250
METAR KDHT 270053Z AUTO 36005KT 10SM OVC044 M02/M07 A3005 RMK AO2 SLP192
       T10221067
METAR KDHT 262353Z AUTO 02010KT 10SM FEW030 OVC050 M02/M07 A2999 RMK AO2
       SLP168 60000 T10221067 11011 21022 53023
SPECI KDHT 262329Z AUTO 01010KT 10SM SCT030 OVC046 M02/M06 A2997 RMK AO2
       T10171061

Amarillo (KAMA) 12/27/14 00:51 UTC
Radar VAD winds      Height      Dir/Spd(kt)
                  18000 FT MSL...272/051
                  17000 FT MSL...257/044
                  16000 FT MSL...237/073
                  15000 FT MSL...240/073
                  14000 FT MSL...235/077
                  13000 FT MSL...231/080
                  12000 FT MSL...170/004
                  11000 FT MSL...242/045
                  10000 FT MSL...239/039
                   9900 FT MSL...240/041
                   9000 FT MSL...241/035
                   8200 FT MSL...263/027
                   8000 FT MSL...249/029
                   7000 FT MSL...256/021
                   6400 FT MSL...266/016
                   6000 FT MSL...301/014
                   5000 FT MSL...306/016
                   4700 FT MSL...321/008
                   4600 FT MSL...001/012
                   4000 FT MSL...336/008

Amarillo Aviation Discussion
Issued at 2332 UTC Friday, December 26, 2014

AVIATION...
FOR 00Z TAFS...AN UPPER LEVEL LOW PRESSURE SYSTEM CONTINUES TO TRACK
ACROSS THE REGION. MVFR CEILINGS ARE EXPECTED TO PERSIST AT
KAMA...KDHT AND KGUY THROUGH THE OVERNIGHT HOURS. HAVE INCLUDED SOME
IFR CEILINGS AND REDUCED VISIBILITY SLIGHTLY AFTER 09Z. STILL EXPECT
IMPROVING CEILINGS BY MID TO LATE MORNING AND CERTAINLY BY 18Z ON SATURDAY.
GARCIA


* * * * * New Mexico * * * * *

KFMN 262339Z 2700/2724 24011KT P6SM SCT040
     FM270100 27007KT P6SM SCT040
     FM270900 VRB03KT P6SM VCFG SCT003
     FM271600 32005KT P6SM FEW200
     FM271900 27010KT P6SM FEW200
METAR KFMN 270053Z 24009KT 10SM SCT045 OVC055 M04/M08 A2993 RMK AO2
       SNE18 SLP169 P0000 T10441078
SPECI KFMN 270016Z 00000KT 6SM -SN SCT025 OVC035 M03/M06 A2992 RMK AO2
       P0000 T10331061
SPECI KFMN 270005Z 28004KT 2SM -SN BKN023 BKN029 OVC036 M03/M07 A2991
       RMK AO2 P0000 T10281067

METAR KSKX 270055Z AUTO 17005KT 10SM OVC038 M08/M11 A2990 RMK AO1
METAR KSKX 270035Z AUTO 15005KT 10SM FEW035 BKN042 M10/M13 A2989 RMK
       AO1
METAR KSKX 270015Z AUTO 17007KT 10SM SCT046 M09/M12 A2986 RMK AO1

KLVS 270040Z 2701/2724 03006KT 1/2SM FZFG VV001
     FM271000 VRB03KT P6SM VCFG SCT003
     FM271700 18009KT P6SM SCT120
METAR KLVS 270053Z AUTO 04006KT 1/4SM FZFG VV002 M11/M12 A2991 RMK AO2
       SLP156 I1001 T11111122
SPECI KLVS 270033Z AUTO 04007KT 1/2SM FZFG VV001 M11/M13 A2989 RMK AO2
       I1000 T11111128
SPECI KLVS 270025Z AUTO 03008KT 1 1/4SM BR BKN001 M12/M13 A2988 RMK AO2
       I1000 T11171128

METAR KRTN 270053Z AUTO 00000KT 9SM OVC030 M09/M11 A2992 RMK AO2 SLP173
       T10891111
METAR KRTN 262353Z AUTO 00000KT 7SM OVC032 M08/M10 A2988 RMK AO2
       SNE02B08E44 SLP158 P0000 60001 T10831100 11044 21083
       53022
SPECI KRTN 262324Z AUTO 02003KT 6SM -SN FEW025 BKN032 OVC060 M08/M11
       A2986 RMK AO2 SNE02B08 P0000 T10781106

METAR KCAO 270055Z AUTO 01006KT 10SM OVC055 M05/M08 A3000 RMK AO2
       SNB02E20 SLP188 P0000 T10501078
METAR KCAO 262355Z AUTO 02006KT 10SM OVC050 M05/M08 A2995 RMK AO2 SNE44
       SLP170 P0001 60001 T10501078 11028 21050 51025
METAR KCAO 262255Z AUTO 01010KT 7SM -SN OVC055 M04/M08 A2992 RMK AO2
       SNB2156 SLP158 P0000 T10441078

Albuquerque (KABX) 12/27/14 00:54 UTC
Radar VAD winds      Height      Dir/Spd(kt)
                  15000 FT MSL...054/005
                   9000 FT MSL...010/001
                   8700 FT MSL...348/001
                   6900 FT MSL...324/000

Albuquerque Aviation Discussion
Issued at 0000 UTC Saturday, December 27, 2014

.AVIATION...
00Z TAF CYCLE
MUCH UNCERTAINTY IN THE 00Z TAF CYCLE WITH REGARD TO THE
DEVELOPMENT OF FREEZING FOG. TERMINAL MOST LIKELY TO BE IMPACTED
IS KTCC...WITH KLVS AND KSAF BEING THE NEW TWO IN LINE. AT
KGUP AND KFMN...LACK OF MELTING AND MUCH DRIER AIRMASS MOVING IN
MAY PRECLUDE FOG DEVELOPMENT. AT KABQ AND KAEG...PALTRY PRECIP
MOSTLY EVAPORATED...SO LIKELIHOOD OF FOG DEVELOPMENT IS LOW WITH
VERY LITTLE MOISTURE IN THE LOWEST PORTION OF THE BOUNDARY LAYER.
OTHERWISE...VFR CONDITIONS ARE FORECAST TO PREVAIL WITH LIGHT
WINDS.
11

* * * * * Winds and Temperatures Aloft Forecasts * * * * *

DATA BASED ON 261200Z    
VALID 261800Z   FOR USE 1700-2100Z. TEMPS NEG ABV 24000
FT  3000    6000   9000    12000   18000   24000  30000  34000  39000
SLC      9900    3411-13 3413-20 3611-30 3516-41 362652 352549 321846
BCE                      3614-17 3525-29 3427-41 343051 333046 301946
LND              0307-15 0509-21 0805-29 0511-42 031053 310550 291347
RKS              0622    0417-20 0507-30 0413-43 010951 300648 281347
GJT              3106-13 3105-18 1505-31 9900-43 270947 241645 252545
FMN              3018-12 2915-18 9900-32 2511-43 242843 243644 234345
ABQ              2520-10 2420-18 2346-29 2360-38 237341 246944 236847
MBW              1115    1113-20 1209-29 1517-42 203751 212649 233347
DEN              0206-16 9900-18 2023-29 1948-40 205149 214848 225347
PUB              0313-14 1810-16 2133-28 1970-39 216347 215947 226848
ALS                      1925-17 2122-31 2046-41 215843 225145 225945
TCC      0514    2322-05 2326-11 2251-24 2269-36 720241 721048 228851
BFF      0212    0515-15 0708-18 2017-28 2040-39 215351 224650 225348
GLD      0323    1305-09 2125-11 2242-24 2158-38 218048 219048 227549
GCK      0415-10 2128-02 2130-09 2148-23 2164-36 710244 721348 228752
GAG      2118+06 2138+00 2148-08 2163-22 2178-34 721743 722050 229454
AMA      2113    2144-02 2252-09 2154-22 2271-34 721642 722450 239353
---------------------------------------------------------------------

DATA BASED ON 261200Z    
VALID 270000Z   FOR USE 2100-0600Z. TEMPS NEG ABV 24000
FT  3000    6000   9000    12000   18000   24000  30000  34000  39000
SLC      3406    3513-13 3515-19 3616-30 3523-41 363851 353350 342348
BCE                      3611-18 3214-29 3219-40 343050 333248 323047
LND              3609-15 3508-20 3305-30 0110-42 361952 341450 301646
RKS              0415    0314-20 0205-30 0117-43 012551 331448 301646
GJT              3310-13 9900-18 3308-31 3511-43 331649 281645 281946
FMN              3019-10 3020-17 3022-31 3024-42 272948 243545 263545
ABQ              2914-09 2921-17 2838-29 2652-39 247646 247044 246248
MBW              0506    0506-20 0807-30 0511-43 200750 231948 241947
DEN              3610-16 2906-20 2513-31 2208-43 212646 214145 233346
PUB              0109-14 2714-18 2417-31 2615-43 224544 215944 234947
ALS                      2418-16 2813-30 2914-44 244044 234543 244346
TCC      9900    2630-09 2537-16 2476-24 7300-34 721343 720349 238952
BFF      3517    0215-16 0309-19 2011-29 2031-41 203649 214548 223548
GLD      0221    0310-15 2218-14 2139-27 1845-39 217644 218747 236449
GCK      0314-10 2518-08 2529-14 2146-26 2278-35 721343 721249 237949
GAG      2324-01 2348-04 2254-10 2380-20 7307-31 721645 722152 238250
AMA      2811    2438-05 2342-13 2380-21 7306-32 721845 722352 239151
---------------------------------------------------------------------

DATA BASED ON 261200Z    
VALID 271200Z   FOR USE 0600-1700Z. TEMPS NEG ABV 24000
FT  3000    6000   9000    12000   18000   24000  30000  34000  39000
SLC      9900    3412-15 3417-19 0144-26 0268-37 018952 017154 354652
BCE                      3611-18 3621-29 3640-39 015749 365549 344251
LND              2808-13 3015-18 3630-28 0257-38 017953 365353 332851
RKS              2614    3015-19 3420-30 0142-40 016551 364651 332550
GJT              0208-14 3508-19 3316-30 3421-41 352950 342550 322047
FMN              3110-12 3010-17 3013-29 2817-41 281750 262048 262548
ABQ              9900-10 2511-17 2815-29 2424-39 234547 235847 244948
MBW              2915    3114-20 3018-31 3319-42 353251 332149 292347
DEN              3311-15 3117-19 3118-31 3219-44 271848 252746 253046
PUB              2911-14 3013-16 2715-31 2424-43 244647 235346 244347
ALS                      2709-17 2718-31 2632-40 253348 234247 243848
TCC      0508    2715-09 2522-15 2347-26 2359-38 721744 721449 238652
BFF      3217    3314-15 3316-20 3216-30 3215-44 311749 262447 253447
GLD      3423    3424-15 3021-17 2628-31 2543-41 236746 237845 235848
GCK      3426-09 3025-11 2727-15 2450-28 2376-38 732444 732047 247150
GAG      3323-05 2621-08 2437-12 2377-24 7209-33 723344 723650 730052
AMA      3521    2618-08 2433-12 2376-24 2396-34 722844 723350 239452
---------------------------------------------------------------------

This product is updated automatically at approximately 10, 30 and 50
minutes after each hour, 24 hours per day, 7 days per week.  It may
become unavailable at times due to system outages without prior notice.
Users are advised to check the time at the top of the product to ensure
that it is current.  Furthermore, content and format of the product are
subject to change without prior notice.

Comments and suggestions are welcome and should be directed to one of
the addresses or phone numbers shown at the bottom of this page.  In
order to expedite a response to comments or suggestions, be sure to
mention your interest in the hot-air balloon forecast.

USA.gov is the U.S. government's official web portal to all federal, state and local government web resources and services.